Burlison, Tennessee
Current Conditions -  °F | °C
As of 10:50 PM on Tuesday 25 Nov 2014 (Local Time) from KNQA Reporting Station
Clear Clear  
Wind Chill: 28°   Ceiling: Unl
Heat Index: 28°   Visibility: 10mi
Dew Point: 27°   Wind: 3mph
Humidity: 93%   Direction: 230°SW
Pressure: 30.18"   Gusts: NA
Location:  35.56°N, 89.78°W
Report Text: KNQA 260450Z 23003KT 10SM SKC M02/M03 A3018
Loading
Personal Weather Stations






























Interactive Weather Map New forecast layout! Learn more

10-Day Weather Forecast

Advertisements
Track Severe Weather on mobile